createdAt,value
2018-03-30T00:00:15.067Z,82.40
2018-03-30T00:01:15.212Z,82.31
2018-03-30T00:02:15.358Z,82.31
2018-03-30T00:03:15.507Z,81.93
2018-03-30T00:04:15.663Z,81.93
2018-03-30T00:05:15.799Z,82.21
2018-03-30T00:06:15.948Z,82.40
2018-03-30T00:07:16.097Z,82.40
2018-03-30T00:08:16.243Z,82.12
2018-03-30T00:09:16.392Z,82.40
2018-03-30T00:10:16.538Z,82.40
2018-03-30T00:11:16.686Z,81.93
2018-03-30T00:12:16.838Z,81.26
2018-03-30T00:13:16.979Z,81.93
2018-03-30T00:14:17.134Z,81.64
2018-03-30T00:15:17.274Z,81.64
2018-03-30T00:16:17.426Z,81.74
2018-03-30T00:17:17.579Z,81.93
2018-03-30T00:18:17.733Z,82.02
2018-03-30T00:19:17.868Z,81.74
2018-03-30T00:20:18.022Z,81.55
2018-03-30T00:21:18.177Z,81.93
2018-03-30T00:22:18.324Z,81.64
2018-03-30T00:23:18.472Z,81.55
2018-03-30T00:24:18.621Z,81.55
2018-03-30T00:25:18.771Z,81.93
2018-03-30T00:26:18.923Z,81.83
2018-03-30T00:27:19.083Z,82.68
2018-03-30T00:28:19.219Z,81.83
2018-03-30T00:29:19.360Z,82.12
2018-03-30T00:30:19.509Z,82.12
2018-03-30T00:31:19.655Z,82.12
2018-03-30T00:32:20.213Z,81.45
2018-03-30T00:33:19.953Z,81.55
2018-03-30T00:34:20.099Z,81.74
2018-03-30T00:35:20.645Z,81.55
2018-03-30T00:36:20.395Z,81.74
2018-03-30T00:37:20.547Z,81.45
2018-03-30T00:38:20.697Z,81.74
2018-03-30T00:39:20.824Z,81.36
2018-03-30T00:40:20.969Z,81.74
2018-03-30T00:41:21.121Z,81.64
2018-03-30T00:42:21.262Z,81.55
2018-03-30T00:43:21.411Z,81.55
2018-03-30T00:44:21.636Z,81.74
2018-03-30T00:45:21.711Z,81.55
2018-03-30T00:46:21.848Z,81.83
2018-03-30T00:47:22.020Z,81.64
2018-03-30T00:48:22.164Z,81.74
2018-03-30T00:49:22.311Z,81.74
2018-03-30T00:50:22.461Z,81.74
2018-03-30T00:51:22.609Z,81.83
2018-03-30T00:52:22.758Z,81.83
2018-03-30T00:53:22.907Z,81.74
2018-03-30T00:54:23.055Z,81.45
2018-03-30T00:55:23.214Z,81.55
2018-03-30T00:56:23.355Z,81.36
2018-03-30T00:57:23.506Z,81.26
2018-03-30T00:58:23.653Z,81.17
2018-03-30T00:59:23.812Z,81.36
2018-03-30T01:00:23.954Z,81.17
2018-03-30T01:01:24.119Z,80.88
2018-03-30T01:02:24.260Z,81.45
2018-03-30T01:03:24.415Z,81.36
2018-03-30T01:04:24.556Z,81.45
2018-03-30T01:05:24.712Z,81.83
2018-03-30T01:06:24.851Z,81.64
2018-03-30T01:07:25.000Z,81.36
2018-03-30T01:08:25.143Z,81.55
2018-03-30T01:09:25.291Z,82.02
2018-03-30T01:10:25.444Z,81.55
2018-03-30T01:11:25.588Z,81.26
2018-03-30T01:12:25.741Z,82.40
2018-03-30T01:13:25.873Z,82.50
2018-03-30T01:14:26.025Z,82.12
2018-03-30T01:15:26.180Z,82.50
2018-03-30T01:16:26.318Z,82.21
2018-03-30T01:17:26.468Z,82.50
2018-03-30T01:18:26.612Z,82.12
2018-03-30T01:19:26.761Z,81.93
2018-03-30T01:20:26.907Z,81.93
2018-03-30T01:21:27.054Z,81.83
2018-03-30T01:22:27.212Z,82.50
2018-03-30T01:23:27.362Z,81.74
2018-03-30T01:24:27.508Z,81.93
2018-03-30T01:25:27.648Z,81.93
2018-03-30T01:26:27.802Z,81.93
2018-03-30T01:27:27.950Z,82.02
2018-03-30T01:28:28.098Z,82.12
2018-03-30T01:29:28.257Z,82.12
2018-03-30T01:30:28.398Z,82.12
2018-03-30T01:31:28.548Z,81.83
2018-03-30T01:32:28.695Z,82.12
2018-03-30T01:33:28.849Z,82.12
2018-03-30T01:34:28.988Z,82.40
2018-03-30T01:35:29.141Z,81.74
2018-03-30T01:36:29.290Z,82.12
2018-03-30T01:37:29.436Z,81.93
2018-03-30T01:38:29.591Z,82.02
2018-03-30T01:39:29.971Z,82.31
2018-03-30T01:40:29.891Z,82.12
2018-03-30T01:41:30.030Z,82.12
2018-03-30T01:42:30.178Z,82.12
2018-03-30T01:43:30.319Z,81.26
2018-03-30T01:44:30.469Z,82.12
2018-03-30T01:45:30.620Z,82.12
2018-03-30T01:46:30.765Z,81.83
2018-03-30T01:47:30.923Z,82.02
2018-03-30T01:48:31.066Z,82.21
2018-03-30T01:49:31.210Z,82.12
2018-03-30T01:50:31.354Z,82.31
2018-03-30T01:51:31.511Z,81.83
2018-03-30T01:52:31.657Z,81.64
2018-03-30T01:53:31.795Z,81.74
2018-03-30T01:55:32.081Z,82.31
2018-03-30T01:56:32.232Z,82.50
2018-03-30T01:57:32.390Z,82.40
2018-03-30T01:58:32.536Z,81.74
2018-03-30T01:59:32.675Z,81.93
2018-03-30T02:00:32.819Z,81.74
2018-03-30T02:01:32.968Z,82.12
2018-03-30T02:02:33.117Z,81.93
2018-03-30T02:03:33.263Z,81.93
2018-03-30T02:04:33.414Z,81.83
2018-03-30T02:05:33.564Z,81.64
2018-03-30T02:06:33.715Z,82.50
2018-03-30T02:07:33.860Z,81.74
2018-03-30T02:08:34.016Z,81.83
2018-03-30T02:09:34.157Z,81.74
2018-03-30T02:10:34.318Z,82.21
2018-03-30T02:11:34.461Z,82.12
2018-03-30T02:12:34.611Z,82.02
2018-03-30T02:13:34.759Z,82.21
2018-03-30T02:14:34.900Z,81.93
2018-03-30T02:15:35.052Z,81.83
2018-03-30T02:16:35.203Z,82.12
2018-03-30T02:17:35.356Z,82.12
2018-03-30T02:18:35.500Z,82.31
2018-03-30T02:19:35.648Z,82.02
2018-03-30T02:20:35.796Z,81.93
2018-03-30T02:21:35.945Z,81.36
2018-03-30T02:22:36.103Z,81.93
2018-03-30T02:23:36.239Z,81.55
2018-03-30T02:24:36.415Z,81.55
2018-03-30T02:25:36.550Z,81.55
2018-03-30T02:26:36.690Z,82.12
2018-03-30T02:27:36.836Z,81.45
2018-03-30T02:28:36.983Z,81.36
2018-03-30T02:29:37.134Z,81.74
2018-03-30T02:30:37.277Z,81.55
2018-03-30T02:31:37.432Z,81.36
2018-03-30T02:32:37.579Z,81.45
2018-03-30T02:33:37.728Z,81.55
2018-03-30T02:34:37.876Z,81.55
2018-03-30T02:35:38.020Z,81.17
2018-03-30T02:36:38.170Z,81.36
2018-03-30T02:37:38.343Z,81.45
2018-03-30T02:38:38.473Z,81.36
2018-03-30T02:39:38.625Z,81.64
2018-03-30T02:40:38.764Z,81.36
2018-03-30T02:41:38.924Z,81.17
2018-03-30T02:42:39.064Z,81.36
2018-03-30T02:43:39.211Z,81.74
2018-03-30T02:44:39.358Z,81.36
2018-03-30T02:45:39.508Z,81.55
2018-03-30T02:46:39.912Z,81.55
2018-03-30T02:47:39.802Z,81.45
2018-03-30T02:48:39.960Z,81.45
2018-03-30T02:49:40.108Z,80.79
2018-03-30T02:50:40.252Z,81.07
2018-03-30T02:51:40.400Z,81.17
2018-03-30T02:52:40.546Z,81.17
2018-03-30T02:53:40.704Z,80.98
2018-03-30T02:54:40.844Z,80.88
2018-03-30T02:55:40.995Z,80.98
2018-03-30T02:56:41.141Z,81.07
2018-03-30T02:57:41.290Z,81.17
2018-03-30T02:58:41.440Z,80.98
2018-03-30T02:59:41.589Z,80.88
2018-03-30T03:00:41.732Z,80.69
2018-03-30T03:01:41.879Z,80.69
2018-03-30T03:02:42.031Z,81.17
2018-03-30T03:03:42.183Z,81.07
2018-03-30T03:04:42.316Z,81.36
2018-03-30T03:05:42.462Z,80.98
2018-03-30T03:06:42.608Z,81.17
2018-03-30T03:07:42.762Z,80.69
2018-03-30T03:08:42.906Z,80.79
2018-03-30T03:09:43.057Z,81.36
2018-03-30T03:10:43.199Z,81.26
2018-03-30T03:11:43.358Z,80.98
2018-03-30T03:12:43.494Z,80.69
2018-03-30T03:13:43.646Z,80.98
2018-03-30T03:14:43.802Z,81.07
2018-03-30T03:15:43.937Z,80.98
2018-03-30T03:16:44.094Z,80.79
2018-03-30T03:17:44.220Z,80.93
2018-03-30T03:18:44.365Z,80.93
2018-03-30T03:19:44.518Z,80.83
2018-03-30T03:20:44.661Z,80.69
2018-03-30T03:21:44.817Z,80.79
2018-03-30T03:22:44.962Z,80.55
2018-03-30T03:23:45.108Z,80.64
2018-03-30T03:24:45.257Z,80.74
2018-03-30T03:25:45.404Z,80.64
2018-03-30T03:26:45.554Z,80.45
2018-03-30T03:27:45.711Z,80.55
2018-03-30T03:28:45.920Z,80.74
2018-03-30T03:29:46.012Z,80.64
2018-03-30T03:30:46.166Z,80.41
2018-03-30T03:31:46.304Z,80.32
2018-03-30T03:32:46.463Z,80.60
2018-03-30T03:33:46.596Z,80.60
2018-03-30T03:34:46.746Z,80.79
2018-03-30T03:35:46.894Z,81.26
2018-03-30T03:36:47.038Z,80.79
2018-03-30T03:37:47.191Z,81.17
2018-03-30T03:38:47.335Z,80.88
2018-03-30T03:39:47.484Z,80.79
2018-03-30T03:40:47.633Z,81.17
2018-03-30T03:41:47.786Z,80.88
2018-03-30T03:42:47.931Z,80.88
2018-03-30T03:43:48.080Z,80.69
2018-03-30T03:44:48.229Z,81.07
2018-03-30T03:45:48.372Z,81.07
2018-03-30T03:46:48.519Z,80.88
2018-03-30T03:47:48.671Z,80.98
2018-03-30T03:48:48.818Z,80.98
2018-03-30T03:49:48.967Z,80.98
2018-03-30T03:50:49.113Z,80.88
2018-03-30T03:51:49.260Z,80.69
2018-03-30T03:52:49.406Z,80.79
2018-03-30T03:53:49.562Z,81.07
2018-03-30T03:54:49.702Z,81.07
2018-03-30T03:55:49.848Z,80.98
2018-03-30T03:56:50.074Z,80.88
2018-03-30T03:57:50.157Z,81.26
2018-03-30T03:58:50.296Z,80.88
2018-03-30T03:59:50.446Z,80.79
2018-03-30T04:00:50.592Z,80.98
2018-03-30T04:01:50.745Z,80.79
2018-03-30T04:02:50.892Z,80.69
2018-03-30T04:03:51.036Z,81.07
2018-03-30T04:04:51.189Z,80.69
2018-03-30T04:05:51.333Z,81.45
2018-03-30T04:06:51.483Z,80.79
2018-03-30T04:07:51.631Z,80.69
2018-03-30T04:08:51.784Z,80.88
2018-03-30T04:09:51.927Z,80.69
2018-03-30T04:10:52.077Z,80.79
2018-03-30T04:11:52.231Z,80.51
2018-03-30T04:12:52.374Z,80.79
2018-03-30T04:13:52.522Z,80.98
2018-03-30T04:14:52.677Z,81.36
2018-03-30T04:15:52.821Z,81.07
2018-03-30T04:16:52.970Z,80.69
2018-03-30T04:17:53.122Z,80.88
2018-03-30T04:18:53.265Z,80.88
2018-03-30T04:19:53.429Z,81.07
2018-03-30T04:20:53.571Z,80.69
2018-03-30T04:21:53.710Z,80.79
2018-03-30T04:22:53.857Z,80.79
2018-03-30T04:23:54.003Z,80.32
2018-03-30T04:24:54.150Z,80.79
2018-03-30T04:25:54.298Z,80.60
2018-03-30T04:26:54.449Z,80.51
2018-03-30T04:27:54.596Z,80.51
2018-03-30T04:28:54.749Z,80.88
2018-03-30T04:30:55.043Z,80.69
2018-03-30T04:31:55.191Z,81.07
2018-03-30T04:32:55.341Z,80.88
2018-03-30T04:33:55.484Z,80.98
2018-03-30T04:34:55.634Z,80.69
2018-03-30T04:35:55.782Z,81.17
2018-03-30T04:36:55.926Z,80.88
2018-03-30T04:37:56.075Z,81.07
2018-03-30T04:38:56.224Z,80.88
2018-03-30T04:39:56.371Z,80.88
2018-03-30T04:40:56.564Z,80.88
2018-03-30T04:41:56.663Z,81.07
2018-03-30T04:42:56.822Z,81.07
2018-03-30T04:43:56.973Z,81.17
2018-03-30T04:44:57.122Z,81.26
2018-03-30T04:45:57.267Z,81.07
2018-03-30T04:46:57.414Z,81.07
2018-03-30T04:47:57.564Z,80.79
2018-03-30T04:48:57.969Z,80.98
2018-03-30T04:49:57.910Z,80.79
2018-03-30T04:50:58.006Z,80.79
2018-03-30T04:51:58.163Z,80.98
2018-03-30T04:52:58.303Z,80.79
2018-03-30T04:53:58.453Z,80.98
2018-03-30T04:54:58.602Z,80.98
2018-03-30T04:55:58.748Z,80.79
2018-03-30T04:56:58.897Z,80.98
2018-03-30T04:57:59.039Z,81.17
2018-03-30T04:58:59.177Z,80.88
2018-03-30T04:59:59.323Z,80.60
2018-03-30T05:00:59.478Z,80.41
2018-03-30T05:01:59.622Z,80.60
2018-03-30T05:02:59.777Z,80.51
2018-03-30T05:05:00.058Z,80.88
2018-03-30T05:06:00.207Z,80.98
2018-03-30T05:07:00.356Z,80.69
2018-03-30T05:08:00.502Z,80.98
2018-03-30T05:09:00.649Z,80.60
2018-03-30T05:10:00.794Z,80.56
2018-03-30T05:11:00.940Z,80.56
2018-03-30T05:12:01.090Z,81.07
2018-03-30T05:13:01.241Z,80.65
2018-03-30T05:14:01.385Z,80.75
2018-03-30T05:15:01.536Z,80.94
2018-03-30T05:16:01.688Z,80.94
2018-03-30T05:17:01.835Z,81.03
2018-03-30T05:18:01.976Z,80.37
2018-03-30T05:19:02.130Z,81.03
2018-03-30T05:20:02.274Z,80.51
2018-03-30T05:21:02.421Z,80.69
2018-03-30T05:22:02.636Z,80.51
2018-03-30T05:23:02.716Z,80.60
2018-03-30T05:24:02.864Z,80.51
2018-03-30T05:25:03.020Z,80.79
2018-03-30T05:26:03.169Z,81.07
2018-03-30T05:27:03.366Z,80.60
2018-03-30T05:28:03.460Z,80.79
2018-03-30T05:29:03.609Z,80.32
2018-03-30T05:30:03.757Z,80.60
2018-03-30T05:31:03.900Z,80.51
2018-03-30T05:32:04.048Z,80.51
2018-03-30T05:33:04.197Z,80.32
2018-03-30T05:34:04.342Z,80.60
2018-03-30T05:35:04.492Z,80.22
2018-03-30T05:36:04.645Z,80.51
2018-03-30T05:37:04.785Z,80.51
2018-03-30T05:38:04.938Z,80.60
2018-03-30T05:39:05.080Z,80.69
2018-03-30T05:40:05.236Z,80.60
2018-03-30T05:41:05.380Z,80.60
2018-03-30T05:42:05.529Z,80.32
2018-03-30T05:43:05.682Z,80.69
2018-03-30T05:44:05.837Z,80.22
2018-03-30T05:45:05.981Z,80.41
2018-03-30T05:46:06.123Z,80.41
2018-03-30T05:47:06.276Z,80.51
2018-03-30T05:48:06.419Z,80.60
2018-03-30T05:49:06.567Z,80.69
2018-03-30T05:50:06.717Z,80.41
2018-03-30T05:51:06.867Z,80.32
2018-03-30T05:52:07.013Z,80.13
2018-03-30T05:53:07.161Z,80.41
2018-03-30T05:54:07.310Z,80.32
2018-03-30T05:55:07.454Z,81.07
2018-03-30T05:56:07.603Z,80.32
2018-03-30T05:57:07.751Z,80.79
2018-03-30T05:58:07.898Z,80.69
2018-03-30T05:59:08.063Z,80.51
2018-03-30T06:00:08.194Z,80.51
2018-03-30T06:01:08.344Z,80.51
2018-03-30T06:02:08.493Z,80.22
2018-03-30T06:03:08.638Z,80.41
2018-03-30T06:04:08.782Z,80.32
2018-03-30T06:05:08.934Z,80.51
2018-03-30T06:06:09.081Z,79.94
2018-03-30T06:07:09.227Z,80.88
2018-03-30T06:08:09.425Z,81.07
2018-03-30T06:09:09.529Z,80.88
2018-03-30T06:10:09.680Z,80.41
2018-03-30T06:12:09.966Z,80.60
2018-03-30T06:13:10.112Z,80.51
2018-03-30T06:14:10.267Z,80.13
2018-03-30T06:15:10.415Z,79.98
2018-03-30T06:16:10.558Z,80.17
2018-03-30T06:17:10.706Z,80.17
2018-03-30T06:18:10.852Z,80.07
2018-03-30T06:19:11.035Z,80.83
2018-03-30T06:20:11.151Z,80.93
2018-03-30T06:21:11.301Z,80.83
2018-03-30T06:22:11.446Z,79.98
2018-03-30T06:23:11.594Z,79.69
2018-03-30T06:24:11.743Z,80.58
2018-03-30T06:25:11.896Z,80.21
2018-03-30T06:26:12.041Z,80.49
2018-03-30T06:27:12.189Z,80.11
2018-03-30T06:28:12.351Z,79.93
2018-03-30T06:29:12.483Z,80.02
2018-03-30T06:30:12.643Z,79.74
2018-03-30T06:31:12.786Z,79.93
2018-03-30T06:32:12.928Z,79.64
2018-03-30T06:33:13.077Z,79.55
2018-03-30T06:34:13.234Z,79.55
2018-03-30T06:36:13.528Z,79.74
2018-03-30T06:37:13.682Z,79.83
2018-03-30T06:38:13.859Z,78.88
2018-03-30T06:39:13.976Z,78.98
2018-03-30T06:40:14.124Z,79.26
2018-03-30T06:41:14.273Z,79.96
2018-03-30T06:42:14.422Z,78.83
2018-03-30T06:43:14.570Z,79.02
2018-03-30T06:44:14.735Z,79.39
2018-03-30T06:45:14.868Z,78.73
2018-03-30T06:46:15.021Z,78.73
2018-03-30T06:47:15.171Z,78.26
2018-03-30T06:48:15.321Z,78.22
2018-03-30T06:49:15.473Z,78.88
2018-03-30T06:50:15.624Z,78.79
2018-03-30T06:51:15.782Z,78.88
2018-03-30T06:52:15.930Z,79.55
2018-03-30T06:53:16.091Z,79.45
2018-03-30T06:54:16.207Z,79.64
2018-03-30T06:55:16.360Z,79.64
2018-03-30T06:56:16.508Z,79.55
2018-03-30T06:57:16.657Z,79.07
2018-03-30T06:58:16.808Z,78.79
2018-03-30T06:59:16.957Z,78.92
2018-03-30T07:00:17.105Z,79.30
2018-03-30T07:01:17.257Z,79.11
2018-03-30T07:02:17.415Z,79.87
2018-03-30T07:03:17.567Z,79.49
2018-03-30T07:04:17.711Z,78.54
2018-03-30T07:05:17.860Z,78.54
2018-03-30T07:06:18.090Z,78.54
2018-03-30T07:07:18.171Z,78.96
2018-03-30T07:08:18.314Z,78.67
2018-03-30T07:09:18.465Z,77.48
2018-03-30T07:10:18.633Z,76.39
2018-03-30T07:11:18.771Z,77.24
2018-03-30T07:12:18.915Z,76.61
2018-03-30T07:13:19.065Z,75.51
2018-03-30T07:14:19.217Z,73.99
2018-03-30T07:15:19.366Z,74.03
2018-03-30T07:16:19.517Z,73.42
2018-03-30T07:17:19.665Z,73.18
2018-03-30T07:18:19.820Z,72.13
2018-03-30T07:19:19.969Z,71.41
2018-03-30T07:20:20.119Z,70.83
2018-03-30T07:21:20.277Z,70.20
2018-03-30T07:22:20.428Z,70.05
2018-03-30T07:23:20.578Z,68.52
2018-03-30T07:24:20.731Z,68.52
2018-03-30T07:25:20.885Z,67.61
2018-03-30T07:26:21.040Z,66.59
2018-03-30T07:27:21.207Z,65.36
2018-03-30T07:28:21.343Z,64.37
2018-03-30T07:29:21.499Z,65.42
2018-03-30T07:30:21.659Z,65.32
2018-03-30T07:31:21.814Z,65.38
2018-03-30T07:32:21.966Z,65.77
2018-03-30T07:33:22.122Z,66.43
2018-03-30T07:34:22.531Z,66.18
2018-03-30T07:35:22.429Z,65.32
2018-03-30T07:36:22.582Z,65.61
2018-03-30T07:37:22.736Z,65.73
2018-03-30T07:38:22.896Z,65.26
2018-03-30T07:39:23.062Z,64.59
2018-03-30T07:40:23.210Z,65.70
2018-03-30T07:41:23.357Z,67.41
2018-03-30T07:42:23.510Z,66.27
2018-03-30T07:43:23.664Z,66.75
2018-03-30T07:44:23.820Z,67.22
2018-03-30T07:45:23.979Z,66.59
2018-03-30T07:46:24.131Z,65.29
2018-03-30T07:47:24.288Z,63.89
2018-03-30T07:48:24.440Z,63.10
2018-03-30T07:49:24.597Z,63.73
2018-03-30T07:50:24.757Z,64.12
2018-03-30T07:51:24.899Z,64.47
2018-03-30T07:52:25.064Z,65.19
2018-03-30T07:53:25.217Z,67.10
2018-03-30T07:54:25.375Z,66.72
2018-03-30T07:55:25.527Z,66.91
2018-03-30T07:56:25.688Z,67.41
2018-03-30T07:57:25.851Z,67.32
2018-03-30T07:58:26.012Z,66.85
2018-03-30T07:59:26.159Z,66.85
2018-03-30T08:00:26.319Z,66.85
2018-03-30T08:01:26.469Z,66.66
2018-03-30T08:02:26.626Z,66.46
2018-03-30T08:03:26.786Z,66.08
2018-03-30T08:04:26.949Z,66.40
2018-03-30T08:05:27.093Z,65.55
2018-03-30T08:06:27.246Z,65.45
2018-03-30T08:07:27.401Z,65.39
2018-03-30T08:08:27.567Z,64.43
2018-03-30T08:09:27.719Z,64.40
2018-03-30T08:10:27.878Z,64.21
2018-03-30T08:12:28.169Z,65.55
2018-03-30T08:13:28.326Z,66.02
2018-03-30T08:14:28.483Z,64.97
2018-03-30T08:15:28.645Z,64.31
2018-03-30T08:16:28.793Z,64.50
2018-03-30T08:17:28.950Z,64.87
2018-03-30T08:18:29.111Z,65.26
2018-03-30T08:19:29.257Z,64.72
2018-03-30T08:20:29.416Z,64.28
2018-03-30T08:21:29.569Z,62.40
2018-03-30T08:22:29.741Z,60.84
2018-03-30T08:23:29.924Z,59.02
2018-03-30T08:24:30.048Z,58.86
2018-03-30T08:25:30.195Z,55.80
2018-03-30T08:26:30.367Z,55.93
2018-03-30T08:27:30.840Z,54.37
2018-03-30T08:28:30.662Z,55.74
2018-03-30T08:29:30.820Z,53.73
2018-03-30T08:30:30.973Z,54.78
2018-03-30T08:31:31.137Z,55.45
2018-03-30T08:32:31.286Z,54.14
2018-03-30T08:33:31.439Z,52.32
2018-03-30T08:34:31.601Z,51.36
2018-03-30T08:35:31.756Z,51.77
2018-03-30T08:36:31.920Z,50.72
2018-03-30T08:37:32.076Z,50.05
2018-03-30T08:38:32.234Z,49.79
2018-03-30T08:39:32.393Z,48.44
2018-03-30T08:40:32.552Z,48.44
2018-03-30T08:41:32.710Z,47.97
2018-03-30T08:42:32.870Z,46.34
2018-03-30T08:43:33.043Z,46.44
2018-03-30T08:44:33.187Z,48.07
2018-03-30T08:45:33.345Z,47.30
2018-03-30T08:46:33.505Z,46.98
2018-03-30T08:47:33.664Z,46.82
2018-03-30T08:48:33.827Z,46.53
2018-03-30T08:49:33.981Z,45.86
2018-03-30T08:50:34.156Z,46.15
2018-03-30T08:51:34.303Z,46.34
2018-03-30T08:52:34.477Z,46.15
2018-03-30T08:53:34.617Z,46.31
2018-03-30T08:54:34.765Z,48.35
2018-03-30T08:55:34.924Z,46.94
2018-03-30T08:56:35.090Z,46.25
2018-03-30T08:57:35.241Z,47.11
2018-03-30T08:58:35.402Z,47.47
2018-03-30T08:59:35.553Z,48.73
2018-03-30T09:00:35.717Z,48.25
2018-03-30T09:01:35.880Z,47.58
2018-03-30T09:02:36.028Z,47.47
2018-03-30T09:03:36.185Z,48.52
2018-03-30T09:04:36.344Z,48.71
2018-03-30T09:05:36.502Z,49.00
2018-03-30T09:06:36.661Z,48.61
2018-03-30T09:07:36.856Z,49.19
2018-03-30T09:08:36.971Z,49.95
2018-03-30T09:09:37.125Z,48.93
2018-03-30T09:10:37.280Z,48.16
2018-03-30T09:11:37.444Z,47.66
2018-03-30T09:12:37.598Z,49.19
2018-03-30T09:13:37.753Z,49.07
2018-03-30T09:14:38.159Z,49.29
2018-03-30T09:15:38.075Z,48.71
2018-03-30T09:16:38.224Z,48.71
2018-03-30T09:17:38.399Z,48.61
2018-03-30T09:18:38.545Z,48.97
2018-03-30T09:19:38.694Z,49.84
2018-03-30T09:20:38.854Z,50.02
2018-03-30T09:21:39.014Z,50.12
2018-03-30T09:22:39.173Z,50.52
2018-03-30T09:23:39.326Z,50.05
2018-03-30T09:24:39.480Z,50.70
2018-03-30T09:25:39.639Z,50.50
2018-03-30T09:26:39.798Z,51.27
2018-03-30T09:27:39.965Z,51.46
2018-03-30T09:28:40.174Z,50.05
2018-03-30T09:29:40.272Z,49.86
2018-03-30T09:30:40.427Z,49.57
2018-03-30T09:31:40.586Z,48.71
2018-03-30T09:32:40.746Z,50.05
2018-03-30T09:33:40.904Z,49.38
2018-03-30T09:34:41.062Z,49.93
2018-03-30T09:35:41.222Z,50.12
2018-03-30T09:36:41.618Z,51.46
2018-03-30T09:37:41.540Z,51.36
2018-03-30T09:38:41.693Z,50.50
2018-03-30T09:39:41.852Z,50.50
2018-03-30T09:40:42.000Z,49.93
2018-03-30T09:41:42.171Z,49.29
2018-03-30T09:43:42.476Z,48.42
2018-03-30T09:44:42.643Z,48.13
2018-03-30T09:45:42.786Z,48.33
2018-03-30T09:46:42.952Z,45.45
2018-03-30T09:47:43.117Z,44.69
2018-03-30T09:48:43.286Z,45.17
2018-03-30T09:49:43.430Z,46.41
2018-03-30T09:50:43.587Z,46.51
2018-03-30T09:51:43.747Z,45.94
2018-03-30T09:52:43.915Z,45.65
2018-03-30T09:53:44.066Z,45.17
2018-03-30T09:54:44.227Z,43.92
2018-03-30T09:55:44.397Z,43.35
2018-03-30T09:56:44.544Z,43.71
2018-03-30T09:57:44.701Z,44.19
2018-03-30T09:58:44.861Z,45.62
2018-03-30T09:59:45.029Z,46.48
2018-03-30T10:00:45.177Z,46.77
2018-03-30T10:01:45.336Z,45.81
2018-03-30T10:02:45.496Z,46.56
2018-03-30T10:03:45.659Z,46.94
2018-03-30T10:04:45.838Z,46.94
2018-03-30T10:05:45.993Z,47.01
2018-03-30T10:06:46.144Z,49.11
2018-03-30T10:07:46.302Z,49.40
2018-03-30T10:08:46.457Z,50.04
2018-03-30T10:09:46.618Z,50.62
2018-03-30T10:10:46.774Z,51.29
2018-03-30T10:11:46.969Z,51.41
2018-03-30T10:12:47.096Z,51.79
2018-03-30T10:13:47.239Z,51.21
2018-03-30T10:14:47.398Z,51.31
2018-03-30T10:15:47.566Z,51.60
2018-03-30T10:16:47.713Z,51.60
2018-03-30T10:17:48.116Z,52.36
2018-03-30T10:18:48.028Z,53.22
2018-03-30T10:19:48.181Z,53.32
2018-03-30T10:20:48.334Z,52.84
2018-03-30T10:21:48.484Z,52.77
2018-03-30T10:22:48.640Z,52.48
2018-03-30T10:23:48.796Z,52.67
2018-03-30T10:24:48.951Z,52.77
2018-03-30T10:25:49.106Z,53.63
2018-03-30T10:26:49.261Z,53.16
2018-03-30T10:27:49.453Z,53.34
2018-03-30T10:28:49.574Z,53.53
2018-03-30T10:29:49.724Z,53.16
2018-03-30T10:30:49.876Z,52.29
2018-03-30T10:31:50.020Z,51.24
2018-03-30T10:32:50.177Z,50.86
2018-03-30T10:33:50.329Z,50.67
2018-03-30T10:34:50.486Z,50.67
2018-03-30T10:35:50.644Z,49.71
2018-03-30T10:36:50.813Z,50.09
2018-03-30T10:37:50.964Z,50.09
2018-03-30T10:38:51.110Z,50.07
2018-03-30T10:39:51.266Z,51.21
2018-03-30T10:40:51.424Z,51.21
2018-03-30T10:41:51.580Z,51.41
2018-03-30T10:42:51.736Z,51.70
2018-03-30T10:43:51.897Z,51.12
2018-03-30T10:44:52.062Z,50.74
2018-03-30T10:45:52.212Z,50.93
2018-03-30T10:46:52.361Z,51.31
2018-03-30T10:47:52.520Z,51.24
2018-03-30T10:48:52.672Z,51.15
2018-03-30T10:49:52.834Z,50.48
2018-03-30T10:50:52.985Z,51.15
2018-03-30T10:51:53.146Z,51.15
2018-03-30T10:52:53.310Z,51.05
2018-03-30T10:53:53.461Z,51.34
2018-03-30T10:54:53.612Z,51.24
2018-03-30T10:55:53.775Z,51.53
2018-03-30T10:56:53.922Z,51.05
2018-03-30T10:57:54.078Z,51.81
2018-03-30T10:58:54.238Z,51.50
2018-03-30T10:59:54.395Z,51.24
2018-03-30T11:00:54.547Z,51.41
2018-03-30T11:01:54.704Z,50.93
2018-03-30T11:02:54.864Z,51.79
2018-03-30T11:03:55.014Z,51.31
2018-03-30T11:04:55.171Z,51.50
2018-03-30T11:05:55.328Z,51.70
2018-03-30T11:06:55.480Z,52.08
2018-03-30T11:07:55.649Z,52.84
2018-03-30T11:08:55.800Z,52.36
2018-03-30T11:09:55.948Z,52.94
2018-03-30T11:10:56.108Z,53.22
2018-03-30T11:11:56.269Z,52.75
2018-03-30T11:12:56.416Z,53.03
2018-03-30T11:13:56.567Z,53.39
2018-03-30T11:14:56.723Z,54.15
2018-03-30T11:15:56.876Z,54.63
2018-03-30T11:16:57.031Z,54.53
2018-03-30T11:17:57.231Z,54.44
2018-03-30T11:18:57.337Z,55.71
2018-03-30T11:19:57.496Z,55.61
2018-03-30T11:20:57.651Z,54.85
2018-03-30T11:21:57.804Z,54.37
2018-03-30T11:22:57.959Z,54.08
2018-03-30T11:23:58.122Z,52.65
2018-03-30T11:24:58.275Z,52.55
2018-03-30T11:25:58.442Z,51.79
2018-03-30T11:26:58.599Z,51.31
2018-03-30T11:27:58.754Z,50.95
2018-03-30T11:28:58.906Z,51.15
2018-03-30T11:29:59.062Z,50.48
2018-03-30T11:30:59.219Z,50.67
2018-03-30T11:31:59.373Z,49.80
2018-03-30T11:32:59.535Z,50.07
2018-03-30T11:33:59.695Z,49.04
2018-03-30T11:34:59.838Z,48.66
2018-03-30T11:36:00.006Z,49.43
2018-03-30T11:37:00.155Z,49.35
2018-03-30T11:38:00.312Z,49.26
2018-03-30T11:39:00.470Z,49.26
2018-03-30T11:40:00.614Z,48.59
2018-03-30T11:41:00.769Z,48.49
2018-03-30T11:42:00.925Z,48.59
2018-03-30T11:43:01.083Z,48.59
2018-03-30T11:44:01.236Z,48.21
2018-03-30T11:45:01.394Z,48.49
2018-03-30T11:46:01.551Z,48.30
2018-03-30T11:47:01.704Z,47.63
2018-03-30T11:48:01.861Z,47.63
2018-03-30T11:49:02.028Z,47.06
2018-03-30T11:50:02.168Z,47.25
2018-03-30T11:51:02.332Z,46.87
2018-03-30T11:52:02.483Z,46.48
2018-03-30T11:53:02.640Z,46.96
2018-03-30T11:54:02.805Z,47.53
2018-03-30T11:55:02.954Z,47.73
2018-03-30T11:56:03.172Z,47.06
2018-03-30T11:57:03.271Z,46.48
2018-03-30T11:58:03.433Z,45.72
2018-03-30T11:59:03.590Z,45.24
2018-03-30T12:00:03.745Z,45.43
2018-03-30T12:01:04.156Z,44.86
2018-03-30T12:02:04.061Z,44.29
2018-03-30T12:03:04.213Z,43.90
2018-03-30T12:04:04.369Z,45.53
2018-03-30T12:05:04.521Z,45.24
2018-03-30T12:06:04.676Z,45.34
2018-03-30T12:07:04.836Z,45.91
2018-03-30T12:08:04.997Z,45.53
2018-03-30T12:09:05.151Z,45.24
2018-03-30T12:10:05.296Z,45.15
2018-03-30T12:11:05.452Z,45.05
2018-03-30T12:12:05.603Z,44.79
2018-03-30T12:13:05.766Z,44.31
2018-03-30T12:14:05.918Z,43.73
2018-03-30T12:15:06.072Z,43.14
2018-03-30T12:16:06.230Z,42.56
2018-03-30T12:17:06.395Z,43.04
2018-03-30T12:18:06.545Z,42.20
2018-03-30T12:19:06.702Z,42.20
2018-03-30T12:20:06.861Z,42.47
2018-03-30T12:21:07.019Z,43.04
2018-03-30T12:22:07.182Z,43.33
2018-03-30T12:23:07.329Z,43.88
2018-03-30T12:24:07.486Z,44.65
2018-03-30T12:25:07.640Z,44.07
2018-03-30T12:26:08.046Z,44.45
2018-03-30T12:27:07.952Z,44.45
2018-03-30T12:28:08.117Z,43.69
2018-03-30T12:29:08.270Z,43.80
2018-03-30T12:30:08.419Z,43.90
2018-03-30T12:31:08.586Z,43.62
2018-03-30T12:32:08.750Z,43.33
2018-03-30T12:33:08.898Z,43.04
2018-03-30T12:34:09.055Z,43.26
2018-03-30T12:35:09.243Z,43.16
2018-03-30T12:36:09.387Z,42.87
2018-03-30T12:37:09.525Z,42.87
2018-03-30T12:38:09.680Z,42.77
2018-03-30T12:39:09.838Z,42.49
2018-03-30T12:40:09.992Z,42.40
2018-03-30T12:41:10.156Z,42.40
2018-03-30T12:42:10.308Z,42.11
2018-03-30T12:43:10.467Z,42.20
2018-03-30T12:44:10.627Z,42.20
2018-03-30T12:45:10.785Z,42.30
2018-03-30T12:46:10.948Z,42.68
2018-03-30T12:47:11.109Z,43.16
2018-03-30T12:48:11.263Z,43.16
2018-03-30T12:49:11.423Z,43.26
2018-03-30T12:50:11.568Z,43.26
2018-03-30T12:51:11.971Z,43.35
2018-03-30T12:52:11.882Z,43.35
2018-03-30T12:53:12.049Z,43.43
2018-03-30T12:54:12.203Z,44.19
2018-03-30T12:55:12.350Z,44.48
2018-03-30T12:56:12.515Z,43.62
2018-03-30T12:57:12.661Z,43.80
2018-03-30T12:58:12.819Z,43.52
2018-03-30T12:59:13.043Z,43.23
2018-03-30T13:00:13.134Z,43.23
2018-03-30T13:01:13.294Z,42.94